Česky Dansk Deutsch English Español Suomi Français Magyar Italiano Nederlands norsk Polski Português svenska Türkçe

 

Het Weer

Dresden-Klotzsche (Duitsland)

01:50, 20 augustus 2016 (GMT)

NWNNE
WE
SWSSE
Home            
Dresden-Klotzsche Cottbus Flugplatz Holzdorf Preschen Altenburg Nobitz Liberec Leipzig-Schkeuditz Karlovy Vary Praha / Ruzyne Berlin-Schoenefeld Berlin-Tempelhof Zielona Gora Hof Berlin-Tegel Magdeburg, Sachsen-Anhalt Erfurt-Bindersleben Bayreuth Grafenwoehr Wroclaw Ii Kuemmersruck Wittstock Hohenfels Poznan

Om een weerknop op uw website of weblog te plaatsen, copieer onderstaande code en plak die in uw pagina. In het eerste vakje staat HTML-code, in het tweede vakje UBB-code.


Add to Google

Details

Wind speed:2 bf, 4 kn, 2.1 m/s, 4.6 miles/h, 7.4 km/h
Wind direction:S, 180°
Visibility:Greater than 10000 m, 10 km, 32800 ft, 6.2 miles
Clouds:CAVOC
Temperature:16°C, 61°F
Dew-point:9°C, 48°F
Atmospheric pressure:1012 hPa, 759.1 mmHg, 29.88 inHg, 0.999 atm
Relative humidity:63.1 %
METAR:EDDC 200150Z 18004KT CAVOK 16/09 Q1012

Snelkoppelingen

Actuele weersinformatie van de hele wereld. Voeg locaties toe met het plus (+) symbool. Deze snelkoppelingen kunnen worden toegevoegd aan Google.

Lid van de Technetium groep

website free tracking
StatCounter NetStat W3C Validator

24-01-2021 01:28:13
astro.technetium.be money.technetium.be phote.technetium.be tafeltennistafel.technetium.be www.ligfiets.net